sensor_id;sensor_type;location;lat;lon;timestamp;temperature;humidity
47857;DHT22;33618;49.972;8.242;2023-04-24T00:01:59;11.00;99.90
47857;DHT22;33618;49.972;8.242;2023-04-24T00:04:27;11.00;99.90
47857;DHT22;33618;49.972;8.242;2023-04-24T00:06:54;11.00;99.90
47857;DHT22;33618;49.972;8.242;2023-04-24T00:09:23;11.00;99.90
47857;DHT22;33618;49.972;8.242;2023-04-24T00:11:51;10.90;99.90
47857;DHT22;33618;49.972;8.242;2023-04-24T00:14:18;10.90;99.90
47857;DHT22;33618;49.972;8.242;2023-04-24T00:16:45;10.90;99.90
47857;DHT22;33618;49.972;8.242;2023-04-24T00:19:12;10.80;99.90
47857;DHT22;33618;49.972;8.242;2023-04-24T00:21:40;10.80;99.90
47857;DHT22;33618;49.972;8.242;2023-04-24T00:24:07;10.80;99.90
47857;DHT22;33618;49.972;8.242;2023-04-24T00:26:35;10.80;99.90
47857;DHT22;33618;49.972;8.242;2023-04-24T00:29:02;10.80;99.90
47857;DHT22;33618;49.972;8.242;2023-04-24T00:31:29;10.70;99.90
47857;DHT22;33618;49.972;8.242;2023-04-24T00:33:57;10.70;99.90
47857;DHT22;33618;49.972;8.242;2023-04-24T00:36:24;10.70;99.90
47857;DHT22;33618;49.972;8.242;2023-04-24T00:38:51;10.70;99.90
47857;DHT22;33618;49.972;8.242;2023-04-24T00:41:18;10.60;99.90
47857;DHT22;33618;49.972;8.242;2023-04-24T00:43:45;10.60;99.90
47857;DHT22;33618;49.972;8.242;2023-04-24T00:46:13;10.50;99.90
47857;DHT22;33618;49.972;8.242;2023-04-24T00:48:40;10.60;99.90
47857;DHT22;33618;49.972;8.242;2023-04-24T00:51:07;10.60;99.90
47857;DHT22;33618;49.972;8.242;2023-04-24T00:53:34;10.60;99.90
47857;DHT22;33618;49.972;8.242;2023-04-24T00:56:02;10.70;99.90
47857;DHT22;33618;49.972;8.242;2023-04-24T00:58:29;10.70;99.90
47857;DHT22;33618;49.972;8.242;2023-04-24T01:00:58;10.70;99.90
47857;DHT22;33618;49.972;8.242;2023-04-24T01:03:29;10.70;99.90
47857;DHT22;33618;49.972;8.242;2023-04-24T01:05:58;10.70;99.90
47857;DHT22;33618;49.972;8.242;2023-04-24T01:08:26;10.60;99.90
47857;DHT22;33618;49.972;8.242;2023-04-24T01:10:55;10.70;99.90
47857;DHT22;33618;49.972;8.242;2023-04-24T01:13:23;10.70;99.90
47857;DHT22;33618;49.972;8.242;2023-04-24T01:15:50;10.80;99.90
47857;DHT22;33618;49.972;8.242;2023-04-24T01:18:17;10.90;99.90
47857;DHT22;33618;49.972;8.242;2023-04-24T01:20:45;10.90;99.90
47857;DHT22;33618;49.972;8.242;2023-04-24T01:23:13;11.00;99.90
47857;DHT22;33618;49.972;8.242;2023-04-24T01:25:40;11.10;99.90
47857;DHT22;33618;49.972;8.242;2023-04-24T01:28:07;11.00;99.90
47857;DHT22;33618;49.972;8.242;2023-04-24T01:30:35;11.00;99.90
47857;DHT22;33618;49.972;8.242;2023-04-24T01:33:02;11.00;99.90
47857;DHT22;33618;49.972;8.242;2023-04-24T01:35:29;11.10;99.90
47857;DHT22;33618;49.972;8.242;2023-04-24T01:37:56;11.20;99.90
47857;DHT22;33618;49.972;8.242;2023-04-24T01:40:23;11.10;99.90
47857;DHT22;33618;49.972;8.242;2023-04-24T01:42:50;11.10;99.90
47857;DHT22;33618;49.972;8.242;2023-04-24T01:45:18;11.10;99.90
47857;DHT22;33618;49.972;8.242;2023-04-24T01:47:47;11.00;99.90
47857;DHT22;33618;49.972;8.242;2023-04-24T01:50:14;11.10;99.90
47857;DHT22;33618;49.972;8.242;2023-04-24T01:52:42;11.20;99.90
47857;DHT22;33618;49.972;8.242;2023-04-24T01:59:10;11.30;99.90
47857;DHT22;33618;49.972;8.242;2023-04-24T02:01:38;11.20;99.90
47857;DHT22;33618;49.972;8.242;2023-04-24T02:04:07;11.20;99.90
47857;DHT22;33618;49.972;8.242;2023-04-24T02:06:34;11.10;99.90
47857;DHT22;33618;49.972;8.242;2023-04-24T02:09:02;11.10;99.90
47857;DHT22;33618;49.972;8.242;2023-04-24T02:11:30;11.00;99.90
47857;DHT22;33618;49.972;8.242;2023-04-24T02:13:57;11.00;99.90
47857;DHT22;33618;49.972;8.242;2023-04-24T02:16:24;11.00;99.90
47857;DHT22;33618;49.972;8.242;2023-04-24T02:18:51;11.00;99.90
47857;DHT22;33618;49.972;8.242;2023-04-24T02:21:18;11.00;99.90
47857;DHT22;33618;49.972;8.242;2023-04-24T02:23:45;11.00;99.90
47857;DHT22;33618;49.972;8.242;2023-04-24T02:26:12;10.90;99.90
47857;DHT22;33618;49.972;8.242;2023-04-24T02:28:39;11.00;99.90
47857;DHT22;33618;49.972;8.242;2023-04-24T02:31:06;10.90;99.90
47857;DHT22;33618;49.972;8.242;2023-04-24T02:33:33;10.90;99.90
47857;DHT22;33618;49.972;8.242;2023-04-24T02:36:01;10.90;99.90
47857;DHT22;33618;49.972;8.242;2023-04-24T02:38:28;10.90;99.90
47857;DHT22;33618;49.972;8.242;2023-04-24T02:40:55;10.90;99.90
47857;DHT22;33618;49.972;8.242;2023-04-24T02:43:22;10.90;99.90
47857;DHT22;33618;49.972;8.242;2023-04-24T02:45:49;10.90;99.90
47857;DHT22;33618;49.972;8.242;2023-04-24T02:48:16;10.90;99.90
47857;DHT22;33618;49.972;8.242;2023-04-24T02:50:44;10.90;99.90
47857;DHT22;33618;49.972;8.242;2023-04-24T02:53:11;10.90;99.90
47857;DHT22;33618;49.972;8.242;2023-04-24T02:55:38;10.90;99.90
47857;DHT22;33618;49.972;8.242;2023-04-24T02:58:05;10.90;99.90
47857;DHT22;33618;49.972;8.242;2023-04-24T03:00:33;10.90;99.90
47857;DHT22;33618;49.972;8.242;2023-04-24T03:02:59;10.90;99.90
47857;DHT22;33618;49.972;8.242;2023-04-24T03:05:27;10.80;99.90
47857;DHT22;33618;49.972;8.242;2023-04-24T03:07:54;10.80;99.90
47857;DHT22;33618;49.972;8.242;2023-04-24T03:10:21;10.80;99.90
47857;DHT22;33618;49.972;8.242;2023-04-24T03:12:49;10.90;99.90
47857;DHT22;33618;49.972;8.242;2023-04-24T03:15:16;10.90;99.90
47857;DHT22;33618;49.972;8.242;2023-04-24T03:17:43;10.80;99.90
47857;DHT22;33618;49.972;8.242;2023-04-24T03:20:10;10.80;99.90
47857;DHT22;33618;49.972;8.242;2023-04-24T03:22:37;10.90;99.90
47857;DHT22;33618;49.972;8.242;2023-04-24T03:25:04;10.80;99.90
47857;DHT22;33618;49.972;8.242;2023-04-24T03:27:31;10.80;99.90
47857;DHT22;33618;49.972;8.242;2023-04-24T03:29:58;10.80;99.90
47857;DHT22;33618;49.972;8.242;2023-04-24T03:32:25;10.80;99.90
47857;DHT22;33618;49.972;8.242;2023-04-24T03:34:52;10.80;99.90
47857;DHT22;33618;49.972;8.242;2023-04-24T03:37:20;10.70;99.90
47857;DHT22;33618;49.972;8.242;2023-04-24T03:39:46;10.70;99.90
47857;DHT22;33618;49.972;8.242;2023-04-24T03:42:13;10.70;99.90
47857;DHT22;33618;49.972;8.242;2023-04-24T03:44:40;10.70;99.90
47857;DHT22;33618;49.972;8.242;2023-04-24T03:47:07;10.70;99.90
47857;DHT22;33618;49.972;8.242;2023-04-24T03:49:34;10.70;99.90
47857;DHT22;33618;49.972;8.242;2023-04-24T03:52:01;10.70;99.90
47857;DHT22;33618;49.972;8.242;2023-04-24T03:54:28;10.60;99.90
47857;DHT22;33618;49.972;8.242;2023-04-24T03:56:56;10.60;99.90
47857;DHT22;33618;49.972;8.242;2023-04-24T03:59:25;10.60;99.90
47857;DHT22;33618;49.972;8.242;2023-04-24T04:01:55;10.50;99.90
47857;DHT22;33618;49.972;8.242;2023-04-24T04:04:23;10.50;99.90
47857;DHT22;33618;49.972;8.242;2023-04-24T04:06:50;10.50;99.90
47857;DHT22;33618;49.972;8.242;2023-04-24T04:09:17;10.40;99.90
47857;DHT22;33618;49.972;8.242;2023-04-24T04:11:45;10.30;99.90
47857;DHT22;33618;49.972;8.242;2023-04-24T04:14:15;10.30;99.90
47857;DHT22;33618;49.972;8.242;2023-04-24T04:16:42;10.10;99.90
47857;DHT22;33618;49.972;8.242;2023-04-24T04:19:09;10.10;99.90
47857;DHT22;33618;49.972;8.242;2023-04-24T04:21:36;10.00;99.90
47857;DHT22;33618;49.972;8.242;2023-04-24T04:24:03;10.00;99.90
47857;DHT22;33618;49.972;8.242;2023-04-24T04:26:32;9.90;99.90
47857;DHT22;33618;49.972;8.242;2023-04-24T04:28:59;9.90;99.90
47857;DHT22;33618;49.972;8.242;2023-04-24T04:31:31;9.80;99.90
47857;DHT22;33618;49.972;8.242;2023-04-24T04:33:58;9.70;99.90
47857;DHT22;33618;49.972;8.242;2023-04-24T04:36:25;9.60;99.90
47857;DHT22;33618;49.972;8.242;2023-04-24T04:38:52;9.60;99.90
47857;DHT22;33618;49.972;8.242;2023-04-24T04:41:28;9.60;99.90
47857;DHT22;33618;49.972;8.242;2023-04-24T04:43:54;9.40;99.90
47857;DHT22;33618;49.972;8.242;2023-04-24T04:46:25;9.40;99.90
47857;DHT22;33618;49.972;8.242;2023-04-24T04:48:53;9.30;99.90
47857;DHT22;33618;49.972;8.242;2023-04-24T04:51:21;9.30;99.90
47857;DHT22;33618;49.972;8.242;2023-04-24T04:53:48;9.20;99.90
47857;DHT22;33618;49.972;8.242;2023-04-24T04:56:15;9.30;99.90
47857;DHT22;33618;49.972;8.242;2023-04-24T04:58:42;9.30;99.90
47857;DHT22;33618;49.972;8.242;2023-04-24T05:01:09;9.30;99.90
47857;DHT22;33618;49.972;8.242;2023-04-24T05:03:36;9.30;99.90
47857;DHT22;33618;49.972;8.242;2023-04-24T05:06:04;9.30;99.90
47857;DHT22;33618;49.972;8.242;2023-04-24T05:08:31;9.30;99.90
47857;DHT22;33618;49.972;8.242;2023-04-24T05:10:58;9.20;99.90
47857;DHT22;33618;49.972;8.242;2023-04-24T05:13:25;9.20;99.90
47857;DHT22;33618;49.972;8.242;2023-04-24T05:16:05;9.20;99.90
47857;DHT22;33618;49.972;8.242;2023-04-24T05:18:32;9.10;99.90
47857;DHT22;33618;49.972;8.242;2023-04-24T05:20:59;9.10;99.90
47857;DHT22;33618;49.972;8.242;2023-04-24T05:23:25;9.10;99.90
47857;DHT22;33618;49.972;8.242;2023-04-24T05:25:52;9.20;99.90
47857;DHT22;33618;49.972;8.242;2023-04-24T05:28:19;9.10;99.90
47857;DHT22;33618;49.972;8.242;2023-04-24T05:30:47;9.20;99.90
47857;DHT22;33618;49.972;8.242;2023-04-24T05:33:14;9.10;99.90
47857;DHT22;33618;49.972;8.242;2023-04-24T05:35:41;9.10;99.90
47857;DHT22;33618;49.972;8.242;2023-04-24T05:38:12;9.10;99.90
47857;DHT22;33618;49.972;8.242;2023-04-24T05:40:39;9.00;99.90
47857;DHT22;33618;49.972;8.242;2023-04-24T05:43:34;9.00;99.90
47857;DHT22;33618;49.972;8.242;2023-04-24T05:46:01;9.00;99.90
47857;DHT22;33618;49.972;8.242;2023-04-24T05:48:28;9.00;99.90
47857;DHT22;33618;49.972;8.242;2023-04-24T05:50:55;9.00;99.90
47857;DHT22;33618;49.972;8.242;2023-04-24T05:53:22;9.00;99.90
47857;DHT22;33618;49.972;8.242;2023-04-24T05:55:49;9.20;99.90
47857;DHT22;33618;49.972;8.242;2023-04-24T05:58:16;9.30;99.90
47857;DHT22;33618;49.972;8.242;2023-04-24T06:00:43;9.30;99.90
47857;DHT22;33618;49.972;8.242;2023-04-24T06:03:12;9.40;99.90
47857;DHT22;33618;49.972;8.242;2023-04-24T06:05:40;9.50;99.90
47857;DHT22;33618;49.972;8.242;2023-04-24T06:08:06;9.60;99.90
47857;DHT22;33618;49.972;8.242;2023-04-24T06:10:33;9.60;99.90
47857;DHT22;33618;49.972;8.242;2023-04-24T06:13:00;9.60;99.90
47857;DHT22;33618;49.972;8.242;2023-04-24T06:15:31;9.50;99.90
47857;DHT22;33618;49.972;8.242;2023-04-24T06:17:58;9.50;99.90
47857;DHT22;33618;49.972;8.242;2023-04-24T06:20:25;9.50;99.90
47857;DHT22;33618;49.972;8.242;2023-04-24T06:22:52;9.50;99.90
47857;DHT22;33618;49.972;8.242;2023-04-24T06:25:20;9.50;99.90
47857;DHT22;33618;49.972;8.242;2023-04-24T06:27:47;9.60;99.90
47857;DHT22;33618;49.972;8.242;2023-04-24T06:30:14;9.60;99.90
47857;DHT22;33618;49.972;8.242;2023-04-24T06:32:41;9.70;99.90
47857;DHT22;33618;49.972;8.242;2023-04-24T06:35:08;9.60;99.90
47857;DHT22;33618;49.972;8.242;2023-04-24T06:37:36;9.70;99.90
47857;DHT22;33618;49.972;8.242;2023-04-24T06:40:03;9.80;99.90
47857;DHT22;33618;49.972;8.242;2023-04-24T06:42:33;9.80;99.90
47857;DHT22;33618;49.972;8.242;2023-04-24T06:45:01;9.90;99.90
47857;DHT22;33618;49.972;8.242;2023-04-24T06:47:31;9.90;99.90
47857;DHT22;33618;49.972;8.242;2023-04-24T06:49:58;10.00;99.90
47857;DHT22;33618;49.972;8.242;2023-04-24T06:52:25;10.00;99.90
47857;DHT22;33618;49.972;8.242;2023-04-24T06:55:00;10.00;99.90
47857;DHT22;33618;49.972;8.242;2023-04-24T06:57:27;10.00;99.90
47857;DHT22;33618;49.972;8.242;2023-04-24T06:59:54;10.00;99.90
47857;DHT22;33618;49.972;8.242;2023-04-24T07:02:21;10.10;99.90
47857;DHT22;33618;49.972;8.242;2023-04-24T07:04:48;10.10;99.90
47857;DHT22;33618;49.972;8.242;2023-04-24T07:07:15;10.30;99.90
47857;DHT22;33618;49.972;8.242;2023-04-24T07:09:43;10.40;99.90
47857;DHT22;33618;49.972;8.242;2023-04-24T07:12:11;10.50;99.90
47857;DHT22;33618;49.972;8.242;2023-04-24T07:14:39;10.40;99.90
47857;DHT22;33618;49.972;8.242;2023-04-24T07:17:06;10.40;99.90
47857;DHT22;33618;49.972;8.242;2023-04-24T07:19:34;10.50;99.90
47857;DHT22;33618;49.972;8.242;2023-04-24T07:22:02;10.60;99.90
47857;DHT22;33618;49.972;8.242;2023-04-24T07:24:30;10.70;99.90
47857;DHT22;33618;49.972;8.242;2023-04-24T07:26:59;10.70;99.90
47857;DHT22;33618;49.972;8.242;2023-04-24T07:29:27;10.70;99.90
47857;DHT22;33618;49.972;8.242;2023-04-24T07:31:54;10.70;99.90
47857;DHT22;33618;49.972;8.242;2023-04-24T07:34:21;10.80;99.90
47857;DHT22;33618;49.972;8.242;2023-04-24T07:36:48;10.90;99.90
47857;DHT22;33618;49.972;8.242;2023-04-24T07:39:15;11.00;99.90
47857;DHT22;33618;49.972;8.242;2023-04-24T07:41:42;11.00;99.90
47857;DHT22;33618;49.972;8.242;2023-04-24T07:44:09;11.10;99.90
47857;DHT22;33618;49.972;8.242;2023-04-24T07:46:36;11.10;99.90
47857;DHT22;33618;49.972;8.242;2023-04-24T07:49:04;11.10;99.90
47857;DHT22;33618;49.972;8.242;2023-04-24T07:51:40;11.10;99.90
47857;DHT22;33618;49.972;8.242;2023-04-24T07:54:08;11.00;99.90
47857;DHT22;33618;49.972;8.242;2023-04-24T07:56:35;11.00;99.90
47857;DHT22;33618;49.972;8.242;2023-04-24T07:59:06;11.00;99.90
47857;DHT22;33618;49.972;8.242;2023-04-24T08:01:32;11.00;99.90
47857;DHT22;33618;49.972;8.242;2023-04-24T08:03:59;11.10;99.90
47857;DHT22;33618;49.972;8.242;2023-04-24T08:06:27;11.20;99.90
47857;DHT22;33618;49.972;8.242;2023-04-24T08:08:57;11.30;99.90
47857;DHT22;33618;49.972;8.242;2023-04-24T08:11:25;11.30;99.80
47857;DHT22;33618;49.972;8.242;2023-04-24T08:13:52;11.40;98.90
47857;DHT22;33618;49.972;8.242;2023-04-24T08:16:18;11.40;99.00
47857;DHT22;33618;49.972;8.242;2023-04-24T08:18:45;11.40;98.70
47857;DHT22;33618;49.972;8.242;2023-04-24T08:21:12;11.50;99.40
47857;DHT22;33618;49.972;8.242;2023-04-24T08:23:44;11.60;99.90
47857;DHT22;33618;49.972;8.242;2023-04-24T08:26:12;11.80;98.70
47857;DHT22;33618;49.972;8.242;2023-04-24T08:28:39;11.80;97.70
47857;DHT22;33618;49.972;8.242;2023-04-24T08:31:06;11.80;98.80
47857;DHT22;33618;49.972;8.242;2023-04-24T08:33:33;11.70;99.70
47857;DHT22;33618;49.972;8.242;2023-04-24T08:36:04;11.60;99.90
47857;DHT22;33618;49.972;8.242;2023-04-24T08:38:32;11.60;99.90
47857;DHT22;33618;49.972;8.242;2023-04-24T08:41:00;11.50;99.90
47857;DHT22;33618;49.972;8.242;2023-04-24T08:43:27;11.50;99.90
47857;DHT22;33618;49.972;8.242;2023-04-24T08:45:56;11.40;99.90
47857;DHT22;33618;49.972;8.242;2023-04-24T08:48:23;11.40;99.50
47857;DHT22;33618;49.972;8.242;2023-04-24T08:50:58;11.50;99.90
47857;DHT22;33618;49.972;8.242;2023-04-24T08:53:26;11.70;99.30
47857;DHT22;33618;49.972;8.242;2023-04-24T08:55:55;11.70;98.90
47857;DHT22;33618;49.972;8.242;2023-04-24T08:58:25;11.60;99.40
47857;DHT22;33618;49.972;8.242;2023-04-24T09:00:56;11.70;99.20
47857;DHT22;33618;49.972;8.242;2023-04-24T09:03:23;11.80;99.70
47857;DHT22;33618;49.972;8.242;2023-04-24T09:05:52;12.20;98.00
47857;DHT22;33618;49.972;8.242;2023-04-24T09:08:24;12.50;98.00
47857;DHT22;33618;49.972;8.242;2023-04-24T09:10:51;12.50;97.30
47857;DHT22;33618;49.972;8.242;2023-04-24T09:13:22;12.40;97.50
47857;DHT22;33618;49.972;8.242;2023-04-24T09:15:49;12.30;97.50
47857;DHT22;33618;49.972;8.242;2023-04-24T09:18:17;12.40;98.10
47857;DHT22;33618;49.972;8.242;2023-04-24T09:21:08;12.70;96.20
47857;DHT22;33618;49.972;8.242;2023-04-24T09:23:36;13.00;95.90
47857;DHT22;33618;49.972;8.242;2023-04-24T09:26:03;12.80;95.40
47857;DHT22;33618;49.972;8.242;2023-04-24T09:28:39;12.50;97.10
47857;DHT22;33618;49.972;8.242;2023-04-24T09:31:09;12.40;97.10
47857;DHT22;33618;49.972;8.242;2023-04-24T09:33:36;12.30;97.40
47857;DHT22;33618;49.972;8.242;2023-04-24T09:36:04;12.80;97.50
47857;DHT22;33618;49.972;8.242;2023-04-24T09:38:37;13.10;96.10
47857;DHT22;33618;49.972;8.242;2023-04-24T09:41:06;13.00;95.40
47857;DHT22;33618;49.972;8.242;2023-04-24T09:43:34;12.70;96.30
47857;DHT22;33618;49.972;8.242;2023-04-24T09:46:06;12.60;97.20
47857;DHT22;33618;49.972;8.242;2023-04-24T09:48:36;12.30;98.00
47857;DHT22;33618;49.972;8.242;2023-04-24T09:51:05;12.30;98.20
47857;DHT22;33618;49.972;8.242;2023-04-24T09:53:38;12.10;99.30
47857;DHT22;33618;49.972;8.242;2023-04-24T09:56:10;12.00;99.00
47857;DHT22;33618;49.972;8.242;2023-04-24T09:58:39;11.90;99.80
47857;DHT22;33618;49.972;8.242;2023-04-24T10:01:06;11.80;99.90
47857;DHT22;33618;49.972;8.242;2023-04-24T10:03:33;11.80;99.90
47857;DHT22;33618;49.972;8.242;2023-04-24T10:06:04;11.70;99.90
47857;DHT22;33618;49.972;8.242;2023-04-24T10:08:36;11.60;99.90
47857;DHT22;33618;49.972;8.242;2023-04-24T10:11:04;11.70;99.90
47857;DHT22;33618;49.972;8.242;2023-04-24T10:13:32;11.90;99.90
47857;DHT22;33618;49.972;8.242;2023-04-24T10:16:00;12.00;99.90
47857;DHT22;33618;49.972;8.242;2023-04-24T10:18:28;12.00;99.90
47857;DHT22;33618;49.972;8.242;2023-04-24T10:20:56;11.80;99.90
47857;DHT22;33618;49.972;8.242;2023-04-24T10:23:25;11.70;99.90
47857;DHT22;33618;49.972;8.242;2023-04-24T10:25:52;11.60;99.90
47857;DHT22;33618;49.972;8.242;2023-04-24T10:28:20;11.50;99.90
47857;DHT22;33618;49.972;8.242;2023-04-24T10:30:48;11.30;99.90
47857;DHT22;33618;49.972;8.242;2023-04-24T10:33:17;11.30;99.90
47857;DHT22;33618;49.972;8.242;2023-04-24T10:35:45;11.30;99.90
47857;DHT22;33618;49.972;8.242;2023-04-24T10:38:23;11.20;99.90
47857;DHT22;33618;49.972;8.242;2023-04-24T10:40:51;11.20;99.90
47857;DHT22;33618;49.972;8.242;2023-04-24T10:43:18;11.10;99.90
47857;DHT22;33618;49.972;8.242;2023-04-24T10:46:02;10.90;99.90
47857;DHT22;33618;49.972;8.242;2023-04-24T10:48:30;10.90;99.90
47857;DHT22;33618;49.972;8.242;2023-04-24T10:50:59;11.00;99.90
47857;DHT22;33618;49.972;8.242;2023-04-24T10:53:30;11.10;99.90
47857;DHT22;33618;49.972;8.242;2023-04-24T10:56:08;11.30;99.90
47857;DHT22;33618;49.972;8.242;2023-04-24T10:58:50;11.60;99.90
47857;DHT22;33618;49.972;8.242;2023-04-24T11:01:27;11.50;99.90
47857;DHT22;33618;49.972;8.242;2023-04-24T11:04:04;11.30;99.90
47857;DHT22;33618;49.972;8.242;2023-04-24T11:06:32;11.10;99.90
47857;DHT22;33618;49.972;8.242;2023-04-24T11:09:06;11.20;99.90
47857;DHT22;33618;49.972;8.242;2023-04-24T11:11:35;11.20;99.90
47857;DHT22;33618;49.972;8.242;2023-04-24T11:14:04;11.40;99.90
47857;DHT22;33618;49.972;8.242;2023-04-24T11:19:07;11.40;99.90
47857;DHT22;33618;49.972;8.242;2023-04-24T11:22:05;11.60;99.90
47857;DHT22;33618;49.972;8.242;2023-04-24T11:24:49;11.70;99.90
47857;DHT22;33618;49.972;8.242;2023-04-24T11:27:19;11.50;99.90
47857;DHT22;33618;49.972;8.242;2023-04-24T11:29:58;11.70;99.90
47857;DHT22;33618;49.972;8.242;2023-04-24T11:32:28;11.90;99.90
47857;DHT22;33618;49.972;8.242;2023-04-24T11:37:39;12.30;99.90
47857;DHT22;33618;49.972;8.242;2023-04-24T11:40:12;13.00;99.90
47857;DHT22;33618;49.972;8.242;2023-04-24T11:42:43;12.90;99.90
47857;DHT22;33618;49.972;8.242;2023-04-24T11:47:43;13.50;97.40
47857;DHT22;33618;49.972;8.242;2023-04-24T11:50:22;14.00;96.80
47857;DHT22;33618;49.972;8.242;2023-04-24T11:52:50;14.20;94.40
47857;DHT22;33618;49.972;8.242;2023-04-24T12:24:57;12.30;99.90
47857;DHT22;33618;49.972;8.242;2023-04-24T12:27:24;12.60;99.90
47857;DHT22;33618;49.972;8.242;2023-04-24T12:29:53;12.80;99.90
47857;DHT22;33618;49.972;8.242;2023-04-24T12:32:20;13.00;98.80
47857;DHT22;33618;49.972;8.242;2023-04-24T12:34:47;13.40;93.90
47857;DHT22;33618;49.972;8.242;2023-04-24T12:37:15;13.70;92.10
47857;DHT22;33618;49.972;8.242;2023-04-24T12:40:08;14.10;91.20
47857;DHT22;33618;49.972;8.242;2023-04-24T12:42:36;14.00;90.50
47857;DHT22;33618;49.972;8.242;2023-04-24T12:45:08;14.00;90.30
47857;DHT22;33618;49.972;8.242;2023-04-24T12:47:35;14.00;90.50
47857;DHT22;33618;49.972;8.242;2023-04-24T12:50:03;14.10;91.00
47857;DHT22;33618;49.972;8.242;2023-04-24T12:52:30;13.90;89.80
47857;DHT22;33618;49.972;8.242;2023-04-24T12:54:59;13.70;90.30
47857;DHT22;33618;49.972;8.242;2023-04-24T12:57:30;13.80;90.40
47857;DHT22;33618;49.972;8.242;2023-04-24T12:59:58;13.90;90.40
47857;DHT22;33618;49.972;8.242;2023-04-24T13:02:27;14.40;90.10
47857;DHT22;33618;49.972;8.242;2023-04-24T13:04:55;14.70;89.50
47857;DHT22;33618;49.972;8.242;2023-04-24T13:07:22;14.80;87.80
47857;DHT22;33618;49.972;8.242;2023-04-24T13:09:50;14.00;89.90
47857;DHT22;33618;49.972;8.242;2023-04-24T13:12:17;13.90;89.20
47857;DHT22;33618;49.972;8.242;2023-04-24T13:14:45;13.70;90.10
47857;DHT22;33618;49.972;8.242;2023-04-24T13:17:13;13.70;91.20
47857;DHT22;33618;49.972;8.242;2023-04-24T13:19:42;13.40;92.40
47857;DHT22;33618;49.972;8.242;2023-04-24T13:22:10;12.70;94.30
47857;DHT22;33618;49.972;8.242;2023-04-24T13:24:38;12.30;97.60
47857;DHT22;33618;49.972;8.242;2023-04-24T13:27:06;12.30;99.90
47857;DHT22;33618;49.972;8.242;2023-04-24T13:29:33;12.40;98.50
47857;DHT22;33618;49.972;8.242;2023-04-24T13:32:00;12.80;99.00
47857;DHT22;33618;49.972;8.242;2023-04-24T13:34:27;13.10;97.60
47857;DHT22;33618;49.972;8.242;2023-04-24T13:36:55;13.40;94.60
47857;DHT22;33618;49.972;8.242;2023-04-24T13:39:23;14.40;93.00
47857;DHT22;33618;49.972;8.242;2023-04-24T13:41:50;14.70;91.20
47857;DHT22;33618;49.972;8.242;2023-04-24T13:44:18;14.50;90.80
47857;DHT22;33618;49.972;8.242;2023-04-24T13:46:47;14.20;91.20
47857;DHT22;33618;49.972;8.242;2023-04-24T13:49:15;14.20;91.60
47857;DHT22;33618;49.972;8.242;2023-04-24T13:51:42;14.20;91.50
47857;DHT22;33618;49.972;8.242;2023-04-24T13:54:09;13.90;88.90
47857;DHT22;33618;49.972;8.242;2023-04-24T14:21:43;14.30;87.80
47857;DHT22;33618;49.972;8.242;2023-04-24T14:24:10;14.60;86.80
47857;DHT22;33618;49.972;8.242;2023-04-24T14:26:37;14.50;87.10
47857;DHT22;33618;49.972;8.242;2023-04-24T14:29:04;14.40;86.50
47857;DHT22;33618;49.972;8.242;2023-04-24T14:31:40;14.10;85.20
47857;DHT22;33618;49.972;8.242;2023-04-24T14:34:07;14.10;86.50
47857;DHT22;33618;49.972;8.242;2023-04-24T14:36:34;14.00;86.70
47857;DHT22;33618;49.972;8.242;2023-04-24T14:39:01;13.70;88.40
47857;DHT22;33618;49.972;8.242;2023-04-24T14:41:33;13.50;89.50
47857;DHT22;33618;49.972;8.242;2023-04-24T14:44:03;13.40;89.80
47857;DHT22;33618;49.972;8.242;2023-04-24T14:46:30;13.50;90.40
47857;DHT22;33618;49.972;8.242;2023-04-24T14:48:57;13.60;90.20
47857;DHT22;33618;49.972;8.242;2023-04-24T14:51:25;13.60;89.90
47857;DHT22;33618;49.972;8.242;2023-04-24T14:53:52;13.70;90.10
47857;DHT22;33618;49.972;8.242;2023-04-24T14:56:19;13.90;89.80
47857;DHT22;33618;49.972;8.242;2023-04-24T14:58:46;14.00;89.90
47857;DHT22;33618;49.972;8.242;2023-04-24T15:01:13;14.30;90.00
47857;DHT22;33618;49.972;8.242;2023-04-24T15:03:41;14.30;86.80
47857;DHT22;33618;49.972;8.242;2023-04-24T15:06:08;14.10;87.20
47857;DHT22;33618;49.972;8.242;2023-04-24T15:08:35;14.10;87.80
47857;DHT22;33618;49.972;8.242;2023-04-24T15:11:02;14.80;88.20
47857;DHT22;33618;49.972;8.242;2023-04-24T15:13:28;15.30;84.80
47857;DHT22;33618;49.972;8.242;2023-04-24T15:15:55;15.70;84.10
47857;DHT22;33618;49.972;8.242;2023-04-24T15:18:22;16.10;82.90
47857;DHT22;33618;49.972;8.242;2023-04-24T15:20:49;16.10;82.70
47857;DHT22;33618;49.972;8.242;2023-04-24T15:23:16;15.10;82.90
47857;DHT22;33618;49.972;8.242;2023-04-24T15:25:43;14.70;84.70
47857;DHT22;33618;49.972;8.242;2023-04-24T15:28:10;14.50;85.00
47857;DHT22;33618;49.972;8.242;2023-04-24T15:30:37;14.40;85.60
47857;DHT22;33618;49.972;8.242;2023-04-24T15:33:03;14.40;85.70
47857;DHT22;33618;49.972;8.242;2023-04-24T15:35:30;14.60;87.10
47857;DHT22;33618;49.972;8.242;2023-04-24T15:37:57;14.60;86.50
47857;DHT22;33618;49.972;8.242;2023-04-24T15:40:24;14.50;86.10
47857;DHT22;33618;49.972;8.242;2023-04-24T15:42:51;14.30;86.70
47857;DHT22;33618;49.972;8.242;2023-04-24T15:45:18;14.00;85.80
47857;DHT22;33618;49.972;8.242;2023-04-24T15:47:45;13.80;86.60
47857;DHT22;33618;49.972;8.242;2023-04-24T15:50:15;13.70;87.90
47857;DHT22;33618;49.972;8.242;2023-04-24T15:52:47;13.60;88.80
47857;DHT22;33618;49.972;8.242;2023-04-24T15:55:13;13.50;88.60
47857;DHT22;33618;49.972;8.242;2023-04-24T16:52:56;14.10;86.00
47857;DHT22;33618;49.972;8.242;2023-04-24T16:55:23;14.30;85.00
47857;DHT22;33618;49.972;8.242;2023-04-24T16:57:51;14.60;85.20
47857;DHT22;33618;49.972;8.242;2023-04-24T17:00:18;14.50;84.20
47857;DHT22;33618;49.972;8.242;2023-04-24T17:02:45;14.30;83.90
47857;DHT22;33618;49.972;8.242;2023-04-24T17:05:14;14.60;83.90
47857;DHT22;33618;49.972;8.242;2023-04-24T17:07:41;14.50;84.40
47857;DHT22;33618;49.972;8.242;2023-04-24T17:10:08;14.30;84.90
47857;DHT22;33618;49.972;8.242;2023-04-24T17:12:35;14.00;86.10
47857;DHT22;33618;49.972;8.242;2023-04-24T17:15:03;13.90;87.40
47857;DHT22;33618;49.972;8.242;2023-04-24T17:17:30;13.80;89.90
47857;DHT22;33618;49.972;8.242;2023-04-24T17:19:57;13.50;91.70
47857;DHT22;33618;49.972;8.242;2023-04-24T17:22:29;13.10;94.50
47857;DHT22;33618;49.972;8.242;2023-04-24T17:24:55;12.80;96.10
47857;DHT22;33618;49.972;8.242;2023-04-24T17:27:22;12.40;98.20
47857;DHT22;33618;49.972;8.242;2023-04-24T17:29:50;12.10;99.80
47857;DHT22;33618;49.972;8.242;2023-04-24T17:32:18;11.90;99.90
47857;DHT22;33618;49.972;8.242;2023-04-24T17:34:45;11.70;99.90
47857;DHT22;33618;49.972;8.242;2023-04-24T17:37:13;11.50;99.90
47857;DHT22;33618;49.972;8.242;2023-04-24T17:39:40;11.30;99.90
47857;DHT22;33618;49.972;8.242;2023-04-24T17:42:07;11.30;99.90